sensor_id;sensor_type;location;lat;lon;timestamp;P1;durP1;ratioP1;P2;durP2;ratioP2
71048;SDS011;58704;53.358;-6.238;2023-09-18T00:02:06;32.50;;;19.43;;
71048;SDS011;58704;53.358;-6.238;2023-09-18T00:04:32;30.47;;;19.77;;
71048;SDS011;58704;53.358;-6.238;2023-09-18T00:06:57;30.85;;;19.10;;
71048;SDS011;58704;53.358;-6.238;2023-09-18T00:09:22;31.50;;;17.70;;
71048;SDS011;58704;53.358;-6.238;2023-09-18T00:11:48;29.43;;;18.57;;
71048;SDS011;58704;53.358;-6.238;2023-09-18T00:14:14;26.92;;;18.15;;
71048;SDS011;58704;53.358;-6.238;2023-09-18T00:16:39;27.00;;;17.20;;
71048;SDS011;58704;53.358;-6.238;2023-09-18T00:19:05;27.53;;;17.87;;
71048;SDS011;58704;53.358;-6.238;2023-09-18T00:21:32;27.20;;;17.77;;
71048;SDS011;58704;53.358;-6.238;2023-09-18T00:23:58;24.60;;;16.55;;
71048;SDS011;58704;53.358;-6.238;2023-09-18T00:26:24;26.70;;;18.10;;
71048;SDS011;58704;53.358;-6.238;2023-09-18T00:28:50;26.05;;;18.30;;
71048;SDS011;58704;53.358;-6.238;2023-09-18T00:31:15;26.33;;;17.47;;
71048;SDS011;58704;53.358;-6.238;2023-09-18T00:33:40;26.37;;;17.77;;
71048;SDS011;58704;53.358;-6.238;2023-09-18T00:36:06;28.00;;;15.77;;
71048;SDS011;58704;53.358;-6.238;2023-09-18T00:38:31;23.65;;;15.82;;
71048;SDS011;58704;53.358;-6.238;2023-09-18T00:40:57;18.20;;;13.00;;
71048;SDS011;58704;53.358;-6.238;2023-09-18T00:43:22;22.77;;;15.17;;
71048;SDS011;58704;53.358;-6.238;2023-09-18T00:45:48;22.67;;;14.83;;
71048;SDS011;58704;53.358;-6.238;2023-09-18T00:48:17;23.05;;;15.77;;
71048;SDS011;58704;53.358;-6.238;2023-09-18T00:50:46;23.88;;;14.85;;
71048;SDS011;58704;53.358;-6.238;2023-09-18T00:53:16;21.80;;;15.40;;
71048;SDS011;58704;53.358;-6.238;2023-09-18T00:55:44;22.23;;;14.98;;
71048;SDS011;58704;53.358;-6.238;2023-09-18T00:58:09;20.40;;;14.57;;
71048;SDS011;58704;53.358;-6.238;2023-09-18T01:00:35;20.17;;;13.93;;
71048;SDS011;58704;53.358;-6.238;2023-09-18T01:03:00;21.13;;;14.30;;
71048;SDS011;58704;53.358;-6.238;2023-09-18T01:05:27;22.42;;;14.18;;
71048;SDS011;58704;53.358;-6.238;2023-09-18T01:07:52;21.80;;;15.07;;
71048;SDS011;58704;53.358;-6.238;2023-09-18T01:10:17;21.58;;;14.40;;
71048;SDS011;58704;53.358;-6.238;2023-09-18T01:12:44;21.17;;;15.10;;
71048;SDS011;58704;53.358;-6.238;2023-09-18T01:15:14;22.53;;;15.07;;
71048;SDS011;58704;53.358;-6.238;2023-09-18T01:17:42;21.42;;;15.43;;
71048;SDS011;58704;53.358;-6.238;2023-09-18T01:20:09;22.77;;;15.13;;
71048;SDS011;58704;53.358;-6.238;2023-09-18T01:22:35;22.10;;;14.82;;
71048;SDS011;58704;53.358;-6.238;2023-09-18T01:25:01;23.83;;;15.43;;
71048;SDS011;58704;53.358;-6.238;2023-09-18T01:27:27;23.75;;;15.88;;
71048;SDS011;58704;53.358;-6.238;2023-09-18T01:29:53;23.20;;;15.80;;
71048;SDS011;58704;53.358;-6.238;2023-09-18T01:32:18;21.33;;;15.45;;
71048;SDS011;58704;53.358;-6.238;2023-09-18T01:34:48;23.73;;;15.03;;
71048;SDS011;58704;53.358;-6.238;2023-09-18T01:37:18;20.67;;;14.20;;
71048;SDS011;58704;53.358;-6.238;2023-09-18T01:39:46;22.10;;;15.30;;
71048;SDS011;58704;53.358;-6.238;2023-09-18T01:42:12;20.57;;;13.90;;
71048;SDS011;58704;53.358;-6.238;2023-09-18T01:44:38;24.38;;;14.27;;
71048;SDS011;58704;53.358;-6.238;2023-09-18T01:47:04;20.40;;;14.50;;
71048;SDS011;58704;53.358;-6.238;2023-09-18T01:49:34;25.70;;;15.98;;
71048;SDS011;58704;53.358;-6.238;2023-09-18T01:52:02;22.37;;;13.73;;
71048;SDS011;58704;53.358;-6.238;2023-09-18T01:54:28;20.95;;;14.55;;
71048;SDS011;58704;53.358;-6.238;2023-09-18T01:56:54;25.77;;;16.65;;
71048;SDS011;58704;53.358;-6.238;2023-09-18T01:59:20;25.97;;;15.87;;
71048;SDS011;58704;53.358;-6.238;2023-09-18T02:01:45;29.45;;;16.60;;
71048;SDS011;58704;53.358;-6.238;2023-09-18T02:04:11;31.53;;;16.63;;
71048;SDS011;58704;53.358;-6.238;2023-09-18T02:06:36;32.83;;;17.07;;
71048;SDS011;58704;53.358;-6.238;2023-09-18T02:09:02;31.60;;;16.77;;
71048;SDS011;58704;53.358;-6.238;2023-09-18T02:11:28;31.50;;;17.87;;
71048;SDS011;58704;53.358;-6.238;2023-09-18T02:13:54;30.63;;;17.47;;
71048;SDS011;58704;53.358;-6.238;2023-09-18T02:16:19;35.57;;;19.03;;
71048;SDS011;58704;53.358;-6.238;2023-09-18T02:18:47;28.38;;;17.08;;
71048;SDS011;58704;53.358;-6.238;2023-09-18T02:21:18;33.03;;;18.97;;
71048;SDS011;58704;53.358;-6.238;2023-09-18T02:23:50;30.42;;;18.23;;
71048;SDS011;58704;53.358;-6.238;2023-09-18T02:26:16;33.78;;;19.35;;
71048;SDS011;58704;53.358;-6.238;2023-09-18T02:28:42;34.77;;;18.63;;
71048;SDS011;58704;53.358;-6.238;2023-09-18T02:31:08;29.23;;;17.63;;
71048;SDS011;58704;53.358;-6.238;2023-09-18T02:33:33;31.67;;;18.37;;
71048;SDS011;58704;53.358;-6.238;2023-09-18T02:35:59;32.60;;;17.90;;
71048;SDS011;58704;53.358;-6.238;2023-09-18T02:38:24;34.97;;;17.57;;
71048;SDS011;58704;53.358;-6.238;2023-09-18T02:40:51;32.65;;;18.35;;
71048;SDS011;58704;53.358;-6.238;2023-09-18T02:43:18;34.08;;;19.08;;
71048;SDS011;58704;53.358;-6.238;2023-09-18T02:45:43;30.83;;;18.87;;
71048;SDS011;58704;53.358;-6.238;2023-09-18T02:48:10;30.98;;;18.48;;
71048;SDS011;58704;53.358;-6.238;2023-09-18T02:50:36;32.65;;;17.95;;
71048;SDS011;58704;53.358;-6.238;2023-09-18T02:53:01;31.30;;;18.70;;
71048;SDS011;58704;53.358;-6.238;2023-09-18T02:55:28;27.77;;;17.17;;
71048;SDS011;58704;53.358;-6.238;2023-09-18T02:57:53;33.77;;;17.47;;
71048;SDS011;58704;53.358;-6.238;2023-09-18T03:00:19;31.00;;;17.23;;
71048;SDS011;58704;53.358;-6.238;2023-09-18T03:02:44;26.97;;;16.03;;
71048;SDS011;58704;53.358;-6.238;2023-09-18T03:05:10;26.58;;;16.20;;
71048;SDS011;58704;53.358;-6.238;2023-09-18T03:07:35;26.90;;;14.40;;
71048;SDS011;58704;53.358;-6.238;2023-09-18T03:10:01;22.07;;;14.20;;
71048;SDS011;58704;53.358;-6.238;2023-09-18T03:12:27;23.77;;;12.95;;
71048;SDS011;58704;53.358;-6.238;2023-09-18T03:14:53;23.27;;;13.52;;
71048;SDS011;58704;53.358;-6.238;2023-09-18T03:17:18;17.33;;;10.93;;
71048;SDS011;58704;53.358;-6.238;2023-09-18T03:19:47;14.25;;;9.45;;
71048;SDS011;58704;53.358;-6.238;2023-09-18T03:22:13;13.70;;;8.98;;
71048;SDS011;58704;53.358;-6.238;2023-09-18T03:24:38;11.53;;;7.83;;
71048;SDS011;58704;53.358;-6.238;2023-09-18T03:27:04;8.27;;;6.13;;
71048;SDS011;58704;53.358;-6.238;2023-09-18T03:29:29;9.80;;;6.53;;
71048;SDS011;58704;53.358;-6.238;2023-09-18T03:31:55;7.43;;;5.17;;
71048;SDS011;58704;53.358;-6.238;2023-09-18T03:34:23;7.40;;;4.95;;
71048;SDS011;58704;53.358;-6.238;2023-09-18T03:36:51;7.97;;;4.43;;
71048;SDS011;58704;53.358;-6.238;2023-09-18T03:39:16;5.55;;;3.92;;
71048;SDS011;58704;53.358;-6.238;2023-09-18T03:41:42;6.60;;;4.63;;
71048;SDS011;58704;53.358;-6.238;2023-09-18T03:44:07;5.50;;;3.90;;
71048;SDS011;58704;53.358;-6.238;2023-09-18T03:46:35;5.07;;;4.20;;
71048;SDS011;58704;53.358;-6.238;2023-09-18T03:49:01;7.30;;;4.32;;
71048;SDS011;58704;53.358;-6.238;2023-09-18T03:51:26;5.00;;;4.03;;
71048;SDS011;58704;53.358;-6.238;2023-09-18T03:53:52;7.05;;;4.10;;
71048;SDS011;58704;53.358;-6.238;2023-09-18T03:56:17;4.63;;;3.70;;
71048;SDS011;58704;53.358;-6.238;2023-09-18T03:58:42;6.87;;;4.67;;
71048;SDS011;58704;53.358;-6.238;2023-09-18T04:01:10;6.82;;;4.60;;
71048;SDS011;58704;53.358;-6.238;2023-09-18T04:03:35;7.63;;;4.10;;
71048;SDS011;58704;53.358;-6.238;2023-09-18T04:06:01;5.67;;;4.03;;
71048;SDS011;58704;53.358;-6.238;2023-09-18T04:08:26;6.82;;;4.50;;
71048;SDS011;58704;53.358;-6.238;2023-09-18T04:10:51;6.60;;;4.67;;
71048;SDS011;58704;53.358;-6.238;2023-09-18T04:13:20;5.95;;;3.67;;
71048;SDS011;58704;53.358;-6.238;2023-09-18T04:15:46;6.43;;;3.70;;
71048;SDS011;58704;53.358;-6.238;2023-09-18T04:18:11;5.93;;;4.13;;
71048;SDS011;58704;53.358;-6.238;2023-09-18T04:20:37;5.43;;;3.85;;
71048;SDS011;58704;53.358;-6.238;2023-09-18T04:25:50;5.40;;;3.88;;
71048;SDS011;58704;53.358;-6.238;2023-09-18T04:28:17;4.95;;;3.95;;
71048;SDS011;58704;53.358;-6.238;2023-09-18T04:30:44;5.95;;;3.70;;
71048;SDS011;58704;53.358;-6.238;2023-09-18T04:33:09;5.43;;;3.50;;
71048;SDS011;58704;53.358;-6.238;2023-09-18T04:35:36;6.70;;;3.55;;
71048;SDS011;58704;53.358;-6.238;2023-09-18T04:38:04;4.90;;;3.05;;
71048;SDS011;58704;53.358;-6.238;2023-09-18T04:40:31;4.20;;;2.67;;
71048;SDS011;58704;53.358;-6.238;2023-09-18T04:42:57;6.77;;;2.90;;
71048;SDS011;58704;53.358;-6.238;2023-09-18T04:45:23;6.07;;;2.78;;
71048;SDS011;58704;53.358;-6.238;2023-09-18T04:47:49;5.38;;;3.22;;
71048;SDS011;58704;53.358;-6.238;2023-09-18T04:50:15;5.20;;;2.70;;
71048;SDS011;58704;53.358;-6.238;2023-09-18T04:52:40;5.37;;;2.80;;
71048;SDS011;58704;53.358;-6.238;2023-09-18T04:55:07;6.37;;;3.27;;
71048;SDS011;58704;53.358;-6.238;2023-09-18T04:57:33;4.10;;;2.70;;
71048;SDS011;58704;53.358;-6.238;2023-09-18T04:59:59;5.25;;;3.00;;
71048;SDS011;58704;53.358;-6.238;2023-09-18T05:02:25;4.03;;;3.07;;
71048;SDS011;58704;53.358;-6.238;2023-09-18T05:04:50;5.77;;;3.37;;
71048;SDS011;58704;53.358;-6.238;2023-09-18T05:07:16;6.53;;;3.60;;
71048;SDS011;58704;53.358;-6.238;2023-09-18T05:09:41;6.33;;;4.13;;
71048;SDS011;58704;53.358;-6.238;2023-09-18T05:12:08;5.50;;;3.95;;
71048;SDS011;58704;53.358;-6.238;2023-09-18T05:14:38;6.23;;;4.00;;
71048;SDS011;58704;53.358;-6.238;2023-09-18T05:17:09;9.43;;;4.35;;
71048;SDS011;58704;53.358;-6.238;2023-09-18T05:19:37;8.57;;;4.18;;
71048;SDS011;58704;53.358;-6.238;2023-09-18T05:22:02;6.63;;;3.70;;
71048;SDS011;58704;53.358;-6.238;2023-09-18T05:24:28;6.40;;;4.03;;
71048;SDS011;58704;53.358;-6.238;2023-09-18T05:26:54;8.37;;;3.77;;
71048;SDS011;58704;53.358;-6.238;2023-09-18T05:29:19;5.45;;;3.67;;
71048;SDS011;58704;53.358;-6.238;2023-09-18T05:31:45;8.17;;;4.10;;
71048;SDS011;58704;53.358;-6.238;2023-09-18T05:34:11;7.40;;;4.05;;
71048;SDS011;58704;53.358;-6.238;2023-09-18T05:36:37;7.00;;;3.22;;
71048;SDS011;58704;53.358;-6.238;2023-09-18T05:39:03;5.90;;;3.43;;
71048;SDS011;58704;53.358;-6.238;2023-09-18T05:41:28;6.27;;;3.80;;
71048;SDS011;58704;53.358;-6.238;2023-09-18T05:43:54;5.88;;;3.85;;
71048;SDS011;58704;53.358;-6.238;2023-09-18T05:46:20;5.90;;;4.45;;
71048;SDS011;58704;53.358;-6.238;2023-09-18T05:48:46;9.00;;;4.30;;
71048;SDS011;58704;53.358;-6.238;2023-09-18T05:51:11;7.27;;;4.20;;
71048;SDS011;58704;53.358;-6.238;2023-09-18T05:53:36;5.47;;;4.37;;
71048;SDS011;58704;53.358;-6.238;2023-09-18T05:56:03;24.38;;;4.82;;
71048;SDS011;58704;53.358;-6.238;2023-09-18T05:58:29;6.10;;;3.38;;
71048;SDS011;58704;53.358;-6.238;2023-09-18T06:00:57;4.85;;;3.47;;
71048;SDS011;58704;53.358;-6.238;2023-09-18T06:03:28;7.63;;;3.42;;
71048;SDS011;58704;53.358;-6.238;2023-09-18T06:05:55;7.67;;;2.90;;
71048;SDS011;58704;53.358;-6.238;2023-09-18T06:08:21;3.97;;;2.85;;
71048;SDS011;58704;53.358;-6.238;2023-09-18T06:10:47;7.45;;;2.55;;
71048;SDS011;58704;53.358;-6.238;2023-09-18T06:13:13;4.43;;;2.50;;
71048;SDS011;58704;53.358;-6.238;2023-09-18T06:15:38;3.63;;;2.30;;
71048;SDS011;58704;53.358;-6.238;2023-09-18T06:18:03;6.87;;;2.33;;
71048;SDS011;58704;53.358;-6.238;2023-09-18T06:20:29;2.53;;;2.00;;
71048;SDS011;58704;53.358;-6.238;2023-09-18T06:22:54;4.63;;;2.20;;
71048;SDS011;58704;53.358;-6.238;2023-09-18T06:25:20;5.43;;;2.20;;
71048;SDS011;58704;53.358;-6.238;2023-09-18T06:27:46;5.13;;;2.22;;
71048;SDS011;58704;53.358;-6.238;2023-09-18T06:30:11;2.63;;;2.13;;
71048;SDS011;58704;53.358;-6.238;2023-09-18T06:32:37;5.15;;;2.22;;
71048;SDS011;58704;53.358;-6.238;2023-09-18T06:35:02;8.33;;;2.50;;
71048;SDS011;58704;53.358;-6.238;2023-09-18T06:37:28;6.00;;;2.13;;
71048;SDS011;58704;53.358;-6.238;2023-09-18T06:39:55;2.40;;;1.80;;
71048;SDS011;58704;53.358;-6.238;2023-09-18T06:42:21;3.42;;;2.00;;
71048;SDS011;58704;53.358;-6.238;2023-09-18T06:44:47;3.60;;;2.20;;
71048;SDS011;58704;53.358;-6.238;2023-09-18T06:47:12;4.50;;;2.03;;
71048;SDS011;58704;53.358;-6.238;2023-09-18T06:49:39;3.75;;;2.20;;
71048;SDS011;58704;53.358;-6.238;2023-09-18T06:52:06;4.10;;;2.10;;
71048;SDS011;58704;53.358;-6.238;2023-09-18T06:54:32;2.83;;;1.98;;
71048;SDS011;58704;53.358;-6.238;2023-09-18T06:56:57;3.20;;;1.77;;
71048;SDS011;58704;53.358;-6.238;2023-09-18T06:59:23;4.27;;;1.60;;
71048;SDS011;58704;53.358;-6.238;2023-09-18T07:01:48;5.37;;;2.13;;
71048;SDS011;58704;53.358;-6.238;2023-09-18T07:04:14;4.63;;;1.83;;
71048;SDS011;58704;53.358;-6.238;2023-09-18T07:06:39;4.97;;;2.20;;
71048;SDS011;58704;53.358;-6.238;2023-09-18T07:09:05;3.70;;;1.60;;
71048;SDS011;58704;53.358;-6.238;2023-09-18T07:11:32;6.37;;;2.07;;
71048;SDS011;58704;53.358;-6.238;2023-09-18T07:14:00;6.30;;;2.08;;
71048;SDS011;58704;53.358;-6.238;2023-09-18T07:16:27;3.17;;;2.05;;
71048;SDS011;58704;53.358;-6.238;2023-09-18T07:18:52;9.77;;;2.40;;
71048;SDS011;58704;53.358;-6.238;2023-09-18T07:21:18;7.17;;;2.10;;
71048;SDS011;58704;53.358;-6.238;2023-09-18T07:23:45;5.10;;;2.10;;
71048;SDS011;58704;53.358;-6.238;2023-09-18T07:26:12;7.63;;;2.40;;
71048;SDS011;58704;53.358;-6.238;2023-09-18T07:28:38;8.30;;;2.10;;
71048;SDS011;58704;53.358;-6.238;2023-09-18T07:31:06;4.40;;;1.80;;
71048;SDS011;58704;53.358;-6.238;2023-09-18T07:33:33;7.32;;;2.33;;
71048;SDS011;58704;53.358;-6.238;2023-09-18T07:35:59;10.20;;;3.83;;
71048;SDS011;58704;53.358;-6.238;2023-09-18T07:38:24;7.33;;;1.97;;
71048;SDS011;58704;53.358;-6.238;2023-09-18T07:40:50;4.97;;;1.83;;
71048;SDS011;58704;53.358;-6.238;2023-09-18T07:43:15;4.15;;;1.55;;
71048;SDS011;58704;53.358;-6.238;2023-09-18T07:45:40;4.83;;;1.90;;
71048;SDS011;58704;53.358;-6.238;2023-09-18T07:48:06;5.70;;;1.60;;
71048;SDS011;58704;53.358;-6.238;2023-09-18T07:50:32;5.35;;;1.70;;
71048;SDS011;58704;53.358;-6.238;2023-09-18T07:52:59;9.50;;;2.83;;
71048;SDS011;58704;53.358;-6.238;2023-09-18T07:55:24;5.30;;;2.00;;
71048;SDS011;58704;53.358;-6.238;2023-09-18T07:57:50;4.60;;;1.70;;
71048;SDS011;58704;53.358;-6.238;2023-09-18T08:00:16;10.23;;;2.90;;
71048;SDS011;58704;53.358;-6.238;2023-09-18T08:02:42;7.80;;;2.23;;
71048;SDS011;58704;53.358;-6.238;2023-09-18T08:05:08;8.57;;;1.80;;
71048;SDS011;58704;53.358;-6.238;2023-09-18T08:07:34;13.50;;;1.80;;
71048;SDS011;58704;53.358;-6.238;2023-09-18T08:10:01;13.32;;;2.08;;
71048;SDS011;58704;53.358;-6.238;2023-09-18T08:12:31;6.60;;;1.63;;
71048;SDS011;58704;53.358;-6.238;2023-09-18T08:14:57;7.43;;;1.65;;
71048;SDS011;58704;53.358;-6.238;2023-09-18T08:17:24;7.00;;;1.67;;
71048;SDS011;58704;53.358;-6.238;2023-09-18T08:19:50;4.45;;;1.60;;
71048;SDS011;58704;53.358;-6.238;2023-09-18T08:22:19;8.27;;;2.20;;
71048;SDS011;58704;53.358;-6.238;2023-09-18T08:24:49;6.47;;;1.83;;
71048;SDS011;58704;53.358;-6.238;2023-09-18T08:27:17;9.30;;;2.35;;
71048;SDS011;58704;53.358;-6.238;2023-09-18T08:29:44;11.33;;;1.73;;
71048;SDS011;58704;53.358;-6.238;2023-09-18T08:32:10;8.35;;;1.90;;
71048;SDS011;58704;53.358;-6.238;2023-09-18T08:34:35;10.87;;;2.03;;
71048;SDS011;58704;53.358;-6.238;2023-09-18T08:37:00;8.47;;;2.13;;
71048;SDS011;58704;53.358;-6.238;2023-09-18T08:39:27;7.03;;;1.60;;
71048;SDS011;58704;53.358;-6.238;2023-09-18T08:41:53;12.55;;;2.10;;
71048;SDS011;58704;53.358;-6.238;2023-09-18T08:44:21;13.00;;;2.23;;
71048;SDS011;58704;53.358;-6.238;2023-09-18T08:46:48;10.40;;;2.40;;
71048;SDS011;58704;53.358;-6.238;2023-09-18T08:49:14;8.82;;;2.38;;
71048;SDS011;58704;53.358;-6.238;2023-09-18T08:51:40;13.80;;;2.20;;
71048;SDS011;58704;53.358;-6.238;2023-09-18T08:54:07;11.00;;;1.98;;
71048;SDS011;58704;53.358;-6.238;2023-09-18T08:56:33;9.67;;;2.20;;
71048;SDS011;58704;53.358;-6.238;2023-09-18T08:58:59;13.55;;;2.53;;
71048;SDS011;58704;53.358;-6.238;2023-09-18T09:01:25;11.68;;;2.17;;
71048;SDS011;58704;53.358;-6.238;2023-09-18T09:03:50;12.43;;;2.27;;
71048;SDS011;58704;53.358;-6.238;2023-09-18T09:06:16;9.97;;;2.17;;
71048;SDS011;58704;53.358;-6.238;2023-09-18T09:08:42;11.50;;;2.03;;
71048;SDS011;58704;53.358;-6.238;2023-09-18T09:11:07;6.77;;;1.83;;
71048;SDS011;58704;53.358;-6.238;2023-09-18T09:13:33;10.93;;;2.20;;
71048;SDS011;58704;53.358;-6.238;2023-09-18T09:15:58;10.63;;;2.10;;
71048;SDS011;58704;53.358;-6.238;2023-09-18T09:18:25;11.43;;;2.30;;
71048;SDS011;58704;53.358;-6.238;2023-09-18T09:20:52;13.40;;;2.20;;
71048;SDS011;58704;53.358;-6.238;2023-09-18T09:23:23;8.38;;;1.90;;
71048;SDS011;58704;53.358;-6.238;2023-09-18T09:25:49;17.70;;;2.85;;
71048;SDS011;58704;53.358;-6.238;2023-09-18T09:28:15;10.17;;;2.30;;
71048;SDS011;58704;53.358;-6.238;2023-09-18T09:30:41;11.98;;;2.20;;
71048;SDS011;58704;53.358;-6.238;2023-09-18T09:33:09;8.38;;;1.98;;
71048;SDS011;58704;53.358;-6.238;2023-09-18T09:35:37;9.10;;;1.80;;
71048;SDS011;58704;53.358;-6.238;2023-09-18T09:38:07;10.98;;;2.53;;
71048;SDS011;58704;53.358;-6.238;2023-09-18T09:40:33;10.63;;;2.53;;
71048;SDS011;58704;53.358;-6.238;2023-09-18T09:43:00;5.43;;;2.17;;
71048;SDS011;58704;53.358;-6.238;2023-09-18T09:45:32;9.13;;;2.17;;
71048;SDS011;58704;53.358;-6.238;2023-09-18T09:48:02;10.02;;;2.25;;
71048;SDS011;58704;53.358;-6.238;2023-09-18T09:50:32;16.60;;;3.35;;
71048;SDS011;58704;53.358;-6.238;2023-09-18T09:52:58;6.63;;;1.70;;
71048;SDS011;58704;53.358;-6.238;2023-09-18T10:00:26;7.93;;;2.03;;
71048;SDS011;58704;53.358;-6.238;2023-09-18T10:03:00;9.48;;;2.28;;
71048;SDS011;58704;53.358;-6.238;2023-09-18T10:05:28;10.30;;;2.20;;
71048;SDS011;58704;53.358;-6.238;2023-09-18T10:07:59;8.00;;;2.53;;
71048;SDS011;58704;53.358;-6.238;2023-09-18T10:10:27;16.02;;;2.53;;
71048;SDS011;58704;53.358;-6.238;2023-09-18T10:12:55;9.38;;;1.95;;
71048;SDS011;58704;53.358;-6.238;2023-09-18T10:15:26;13.82;;;2.15;;
71048;SDS011;58704;53.358;-6.238;2023-09-18T10:17:51;14.43;;;2.23;;
71048;SDS011;58704;53.358;-6.238;2023-09-18T10:20:19;14.20;;;2.47;;
71048;SDS011;58704;53.358;-6.238;2023-09-18T10:22:48;9.05;;;2.25;;
71048;SDS011;58704;53.358;-6.238;2023-09-18T10:25:23;11.43;;;2.20;;
71048;SDS011;58704;53.358;-6.238;2023-09-18T10:27:50;9.85;;;2.20;;
71048;SDS011;58704;53.358;-6.238;2023-09-18T10:30:18;9.55;;;2.22;;
71048;SDS011;58704;53.358;-6.238;2023-09-18T10:32:45;15.75;;;2.47;;
71048;SDS011;58704;53.358;-6.238;2023-09-18T10:35:11;13.30;;;2.50;;
71048;SDS011;58704;53.358;-6.238;2023-09-18T10:37:43;10.63;;;2.60;;
71048;SDS011;58704;53.358;-6.238;2023-09-18T10:40:10;9.45;;;2.47;;
71048;SDS011;58704;53.358;-6.238;2023-09-18T10:42:40;13.35;;;2.38;;
71048;SDS011;58704;53.358;-6.238;2023-09-18T10:45:08;9.48;;;2.10;;
71048;SDS011;58704;53.358;-6.238;2023-09-18T10:47:40;9.30;;;2.00;;
71048;SDS011;58704;53.358;-6.238;2023-09-18T10:50:08;10.20;;;2.77;;
71048;SDS011;58704;53.358;-6.238;2023-09-18T10:52:35;7.93;;;2.38;;
71048;SDS011;58704;53.358;-6.238;2023-09-18T10:55:01;8.20;;;2.20;;
71048;SDS011;58704;53.358;-6.238;2023-09-18T10:57:35;11.40;;;2.50;;
71048;SDS011;58704;53.358;-6.238;2023-09-18T11:00:02;11.98;;;1.88;;
71048;SDS011;58704;53.358;-6.238;2023-09-18T11:02:38;11.73;;;3.30;;
71048;SDS011;58704;53.358;-6.238;2023-09-18T11:05:07;9.40;;;1.70;;
71048;SDS011;58704;53.358;-6.238;2023-09-18T11:07:32;10.60;;;2.25;;
71048;SDS011;58704;53.358;-6.238;2023-09-18T11:09:57;7.97;;;2.20;;
71048;SDS011;58704;53.358;-6.238;2023-09-18T11:12:41;10.33;;;2.53;;
71048;SDS011;58704;53.358;-6.238;2023-09-18T11:15:07;9.20;;;2.17;;
71048;SDS011;58704;53.358;-6.238;2023-09-18T11:22:31;7.32;;;2.17;;
71048;SDS011;58704;53.358;-6.238;2023-09-18T11:28:13;8.23;;;2.10;;
71048;SDS011;58704;53.358;-6.238;2023-09-18T11:30:48;11.93;;;2.85;;
71048;SDS011;58704;53.358;-6.238;2023-09-18T11:33:40;5.53;;;1.95;;
71048;SDS011;58704;53.358;-6.238;2023-09-18T11:36:12;6.68;;;1.90;;
71048;SDS011;58704;53.358;-6.238;2023-09-18T11:38:56;6.90;;;2.23;;
71048;SDS011;58704;53.358;-6.238;2023-09-18T11:41:29;8.05;;;2.05;;
71048;SDS011;58704;53.358;-6.238;2023-09-18T11:46:44;7.93;;;1.80;;
71048;SDS011;58704;53.358;-6.238;2023-09-18T11:49:11;6.68;;;2.00;;
71048;SDS011;58704;53.358;-6.238;2023-09-18T11:51:37;10.87;;;1.90;;
71048;SDS011;58704;53.358;-6.238;2023-09-18T11:54:03;6.88;;;1.90;;
71048;SDS011;58704;53.358;-6.238;2023-09-18T11:56:29;6.23;;;1.87;;
71048;SDS011;58704;53.358;-6.238;2023-09-18T11:58:55;10.40;;;1.92;;
71048;SDS011;58704;53.358;-6.238;2023-09-18T12:01:20;10.47;;;1.87;;
71048;SDS011;58704;53.358;-6.238;2023-09-18T12:03:52;5.83;;;1.77;;
71048;SDS011;58704;53.358;-6.238;2023-09-18T12:06:25;9.35;;;1.95;;
71048;SDS011;58704;53.358;-6.238;2023-09-18T12:08:51;7.28;;;1.70;;
71048;SDS011;58704;53.358;-6.238;2023-09-18T12:11:17;8.63;;;1.80;;
71048;SDS011;58704;53.358;-6.238;2023-09-18T12:13:44;9.20;;;2.10;;
71048;SDS011;58704;53.358;-6.238;2023-09-18T12:16:15;7.22;;;1.30;;
71048;SDS011;58704;53.358;-6.238;2023-09-18T12:18:44;11.10;;;1.90;;
71048;SDS011;58704;53.358;-6.238;2023-09-18T12:21:12;8.82;;;2.35;;
71048;SDS011;58704;53.358;-6.238;2023-09-18T12:23:39;7.32;;;2.10;;
71048;SDS011;58704;53.358;-6.238;2023-09-18T12:26:05;4.63;;;1.70;;
71048;SDS011;58704;53.358;-6.238;2023-09-18T12:28:37;11.23;;;2.23;;
71048;SDS011;58704;53.358;-6.238;2023-09-18T12:31:03;8.45;;;2.13;;
71048;SDS011;58704;53.358;-6.238;2023-09-18T12:33:30;4.97;;;1.70;;
71048;SDS011;58704;53.358;-6.238;2023-09-18T12:35:59;8.50;;;1.95;;
71048;SDS011;58704;53.358;-6.238;2023-09-18T12:38:24;7.70;;;2.00;;
71048;SDS011;58704;53.358;-6.238;2023-09-18T12:40:52;7.13;;;1.90;;
71048;SDS011;58704;53.358;-6.238;2023-09-18T12:43:18;6.15;;;1.65;;
71048;SDS011;58704;53.358;-6.238;2023-09-18T12:45:44;6.60;;;1.87;;
71048;SDS011;58704;53.358;-6.238;2023-09-18T12:48:11;10.60;;;2.20;;
71048;SDS011;58704;53.358;-6.238;2023-09-18T12:50:37;9.07;;;1.58;;
71048;SDS011;58704;53.358;-6.238;2023-09-18T12:53:12;5.37;;;1.60;;
71048;SDS011;58704;53.358;-6.238;2023-09-18T12:55:38;4.00;;;1.35;;
71048;SDS011;58704;53.358;-6.238;2023-09-18T12:58:05;4.65;;;1.40;;
71048;SDS011;58704;53.358;-6.238;2023-09-18T13:00:32;4.85;;;1.63;;
71048;SDS011;58704;53.358;-6.238;2023-09-18T13:02:58;9.50;;;1.80;;
71048;SDS011;58704;53.358;-6.238;2023-09-18T13:05:24;2.80;;;1.50;;
71048;SDS011;58704;53.358;-6.238;2023-09-18T13:07:51;4.90;;;1.30;;
71048;SDS011;58704;53.358;-6.238;2023-09-18T13:10:17;3.13;;;1.30;;
71048;SDS011;58704;53.358;-6.238;2023-09-18T13:12:49;4.20;;;1.50;;
71048;SDS011;58704;53.358;-6.238;2023-09-18T13:15:33;5.80;;;1.30;;
71048;SDS011;58704;53.358;-6.238;2023-09-18T13:18:01;3.00;;;1.10;;
71048;SDS011;58704;53.358;-6.238;2023-09-18T13:20:34;1.85;;;1.25;;
71048;SDS011;58704;53.358;-6.238;2023-09-18T13:22:59;3.03;;;1.40;;
71048;SDS011;58704;53.358;-6.238;2023-09-18T13:25:29;2.25;;;1.30;;
71048;SDS011;58704;53.358;-6.238;2023-09-18T13:28:00;2.05;;;1.20;;
71048;SDS011;58704;53.358;-6.238;2023-09-18T13:30:27;2.20;;;1.27;;
71048;SDS011;58704;53.358;-6.238;2023-09-18T13:33:00;1.88;;;1.08;;
71048;SDS011;58704;53.358;-6.238;2023-09-18T13:35:27;2.22;;;1.17;;
71048;SDS011;58704;53.358;-6.238;2023-09-18T13:37:53;3.27;;;1.37;;
71048;SDS011;58704;53.358;-6.238;2023-09-18T13:40:18;2.40;;;1.20;;
71048;SDS011;58704;53.358;-6.238;2023-09-18T13:42:43;3.70;;;1.17;;
71048;SDS011;58704;53.358;-6.238;2023-09-18T13:45:09;3.13;;;1.20;;
71048;SDS011;58704;53.358;-6.238;2023-09-18T13:47:35;3.03;;;1.15;;
71048;SDS011;58704;53.358;-6.238;2023-09-18T13:50:02;4.07;;;1.50;;
71048;SDS011;58704;53.358;-6.238;2023-09-18T13:52:29;4.88;;;1.30;;
71048;SDS011;58704;53.358;-6.238;2023-09-18T13:54:55;2.53;;;1.13;;
71048;SDS011;58704;53.358;-6.238;2023-09-18T13:57:21;5.57;;;1.58;;
71048;SDS011;58704;53.358;-6.238;2023-09-18T13:59:47;4.23;;;1.50;;
71048;SDS011;58704;53.358;-6.238;2023-09-18T14:02:13;4.85;;;1.10;;
71048;SDS011;58704;53.358;-6.238;2023-09-18T14:04:39;4.07;;;1.30;;
71048;SDS011;58704;53.358;-6.238;2023-09-18T14:07:08;3.27;;;1.33;;
71048;SDS011;58704;53.358;-6.238;2023-09-18T14:09:34;6.25;;;1.50;;
71048;SDS011;58704;53.358;-6.238;2023-09-18T14:12:00;3.77;;;1.20;;
71048;SDS011;58704;53.358;-6.238;2023-09-18T14:14:26;5.03;;;1.27;;
71048;SDS011;58704;53.358;-6.238;2023-09-18T14:16:51;4.43;;;1.40;;
71048;SDS011;58704;53.358;-6.238;2023-09-18T14:19:17;3.28;;;1.25;;
71048;SDS011;58704;53.358;-6.238;2023-09-18T14:21:43;2.37;;;1.40;;
71048;SDS011;58704;53.358;-6.238;2023-09-18T14:24:08;5.43;;;1.20;;
71048;SDS011;58704;53.358;-6.238;2023-09-18T14:26:34;7.22;;;1.48;;
71048;SDS011;58704;53.358;-6.238;2023-09-18T14:29:05;3.33;;;1.40;;
71048;SDS011;58704;53.358;-6.238;2023-09-18T14:31:32;5.10;;;1.60;;
71048;SDS011;58704;53.358;-6.238;2023-09-18T14:33:57;3.13;;;1.60;;
71048;SDS011;58704;53.358;-6.238;2023-09-18T14:36:23;2.80;;;1.23;;
71048;SDS011;58704;53.358;-6.238;2023-09-18T14:38:49;2.83;;;1.30;;
71048;SDS011;58704;53.358;-6.238;2023-09-18T14:41:14;4.15;;;1.15;;
71048;SDS011;58704;53.358;-6.238;2023-09-18T14:43:42;2.03;;;1.10;;